sensor_id;sensor_type;location;lat;lon;timestamp;P1;durP1;ratioP1;P2;durP2;ratioP2
52574;SDS011;38468;48.114;-1.684;2023-05-15T00:00:59;13.10;;;10.65;;
52574;SDS011;38468;48.114;-1.684;2023-05-15T00:02:59;13.38;;;11.77;;
52574;SDS011;38468;48.114;-1.684;2023-05-15T00:05:01;12.20;;;10.93;;
52574;SDS011;38468;48.114;-1.684;2023-05-15T00:07:02;16.63;;;11.93;;
52574;SDS011;38468;48.114;-1.684;2023-05-15T00:09:03;14.80;;;11.93;;
52574;SDS011;38468;48.114;-1.684;2023-05-15T00:11:03;18.00;;;13.90;;
52574;SDS011;38468;48.114;-1.684;2023-05-15T00:13:04;14.48;;;12.95;;
52574;SDS011;38468;48.114;-1.684;2023-05-15T00:15:05;16.02;;;13.32;;
52574;SDS011;38468;48.114;-1.684;2023-05-15T00:17:07;16.05;;;12.55;;
52574;SDS011;38468;48.114;-1.684;2023-05-15T00:19:08;16.95;;;13.05;;
52574;SDS011;38468;48.114;-1.684;2023-05-15T00:21:09;15.82;;;12.23;;
52574;SDS011;38468;48.114;-1.684;2023-05-15T00:23:10;18.20;;;11.73;;
52574;SDS011;38468;48.114;-1.684;2023-05-15T00:25:10;14.23;;;11.07;;
52574;SDS011;38468;48.114;-1.684;2023-05-15T00:27:11;12.68;;;11.48;;
52574;SDS011;38468;48.114;-1.684;2023-05-15T00:29:12;15.30;;;13.27;;
52574;SDS011;38468;48.114;-1.684;2023-05-15T00:31:12;16.13;;;12.95;;
52574;SDS011;38468;48.114;-1.684;2023-05-15T00:33:13;17.40;;;13.10;;
52574;SDS011;38468;48.114;-1.684;2023-05-15T00:35:14;14.43;;;12.60;;
52574;SDS011;38468;48.114;-1.684;2023-05-15T00:37:15;17.90;;;13.98;;
52574;SDS011;38468;48.114;-1.684;2023-05-15T00:39:16;11.93;;;10.73;;
52574;SDS011;38468;48.114;-1.684;2023-05-15T00:41:17;14.48;;;12.65;;
52574;SDS011;38468;48.114;-1.684;2023-05-15T00:43:18;15.20;;;12.93;;
52574;SDS011;38468;48.114;-1.684;2023-05-15T00:45:19;14.77;;;13.05;;
52574;SDS011;38468;48.114;-1.684;2023-05-15T00:47:21;13.75;;;12.35;;
52574;SDS011;38468;48.114;-1.684;2023-05-15T00:49:24;15.65;;;13.80;;
52574;SDS011;38468;48.114;-1.684;2023-05-15T00:51:28;14.93;;;13.23;;
52574;SDS011;38468;48.114;-1.684;2023-05-15T00:53:29;16.90;;;13.65;;
52574;SDS011;38468;48.114;-1.684;2023-05-15T00:55:30;14.88;;;13.27;;
52574;SDS011;38468;48.114;-1.684;2023-05-15T00:57:31;13.47;;;12.17;;
52574;SDS011;38468;48.114;-1.684;2023-05-15T00:59:33;16.67;;;14.07;;
52574;SDS011;38468;48.114;-1.684;2023-05-15T01:01:34;15.52;;;13.68;;
52574;SDS011;38468;48.114;-1.684;2023-05-15T01:03:36;17.92;;;14.65;;
52574;SDS011;38468;48.114;-1.684;2023-05-15T01:05:37;14.50;;;12.98;;
52574;SDS011;38468;48.114;-1.684;2023-05-15T01:07:39;14.38;;;12.88;;
52574;SDS011;38468;48.114;-1.684;2023-05-15T01:09:48;16.58;;;14.30;;
52574;SDS011;38468;48.114;-1.684;2023-05-15T01:11:52;16.48;;;14.73;;
52574;SDS011;38468;48.114;-1.684;2023-05-15T01:15:54;17.55;;;14.02;;
52574;SDS011;38468;48.114;-1.684;2023-05-15T01:17:55;14.95;;;13.35;;
52574;SDS011;38468;48.114;-1.684;2023-05-15T01:19:55;13.85;;;12.50;;
52574;SDS011;38468;48.114;-1.684;2023-05-15T01:31:41;16.38;;;14.20;;
52574;SDS011;38468;48.114;-1.684;2023-05-15T01:33:45;16.50;;;14.75;;
52574;SDS011;38468;48.114;-1.684;2023-05-15T01:38:14;16.30;;;14.60;;
52574;SDS011;38468;48.114;-1.684;2023-05-15T01:40:23;17.20;;;14.82;;
52574;SDS011;38468;48.114;-1.684;2023-05-15T01:42:26;17.52;;;15.75;;
52574;SDS011;38468;48.114;-1.684;2023-05-15T01:44:35;16.10;;;14.00;;
52574;SDS011;38468;48.114;-1.684;2023-05-15T01:46:42;19.20;;;16.10;;
52574;SDS011;38468;48.114;-1.684;2023-05-15T01:48:48;18.55;;;16.02;;
52574;SDS011;38468;48.114;-1.684;2023-05-15T01:50:51;18.02;;;15.57;;
52574;SDS011;38468;48.114;-1.684;2023-05-15T01:52:57;16.00;;;14.40;;
52574;SDS011;38468;48.114;-1.684;2023-05-15T01:55:03;17.00;;;14.90;;
52574;SDS011;38468;48.114;-1.684;2023-05-15T01:57:05;17.55;;;14.25;;
52574;SDS011;38468;48.114;-1.684;2023-05-15T01:59:08;15.40;;;13.80;;
52574;SDS011;38468;48.114;-1.684;2023-05-15T02:01:09;19.08;;;16.15;;
52574;SDS011;38468;48.114;-1.684;2023-05-15T02:03:10;19.60;;;14.70;;
52574;SDS011;38468;48.114;-1.684;2023-05-15T02:05:11;15.52;;;13.63;;
52574;SDS011;38468;48.114;-1.684;2023-05-15T02:07:13;20.95;;;16.42;;
52574;SDS011;38468;48.114;-1.684;2023-05-15T02:09:15;18.73;;;16.02;;
52574;SDS011;38468;48.114;-1.684;2023-05-15T02:11:17;19.38;;;13.88;;
52574;SDS011;38468;48.114;-1.684;2023-05-15T02:13:17;16.48;;;14.82;;
52574;SDS011;38468;48.114;-1.684;2023-05-15T02:15:19;17.80;;;15.40;;
52574;SDS011;38468;48.114;-1.684;2023-05-15T02:17:20;17.65;;;14.00;;
52574;SDS011;38468;48.114;-1.684;2023-05-15T02:19:23;14.18;;;12.77;;
52574;SDS011;38468;48.114;-1.684;2023-05-15T02:21:23;14.00;;;12.60;;
52574;SDS011;38468;48.114;-1.684;2023-05-15T02:23:24;16.83;;;15.02;;
52574;SDS011;38468;48.114;-1.684;2023-05-15T02:25:29;24.02;;;15.10;;
52574;SDS011;38468;48.114;-1.684;2023-05-15T02:27:53;16.52;;;14.63;;
52574;SDS011;38468;48.114;-1.684;2023-05-15T02:32:36;14.85;;;13.38;;
52574;SDS011;38468;48.114;-1.684;2023-05-15T02:35:01;14.73;;;12.95;;
52574;SDS011;38468;48.114;-1.684;2023-05-15T02:37:07;21.63;;;15.82;;
52574;SDS011;38468;48.114;-1.684;2023-05-15T02:39:17;16.08;;;13.52;;
52574;SDS011;38468;48.114;-1.684;2023-05-15T02:41:22;16.13;;;14.20;;
52574;SDS011;38468;48.114;-1.684;2023-05-15T02:43:23;16.20;;;12.88;;
52574;SDS011;38468;48.114;-1.684;2023-05-15T02:45:25;16.20;;;14.50;;
52574;SDS011;38468;48.114;-1.684;2023-05-15T02:47:26;19.58;;;15.48;;
52574;SDS011;38468;48.114;-1.684;2023-05-15T02:49:28;17.77;;;16.13;;
52574;SDS011;38468;48.114;-1.684;2023-05-15T02:51:28;17.35;;;15.60;;
52574;SDS011;38468;48.114;-1.684;2023-05-15T02:53:29;20.08;;;15.98;;
52574;SDS011;38468;48.114;-1.684;2023-05-15T02:55:33;15.43;;;13.88;;
52574;SDS011;38468;48.114;-1.684;2023-05-15T02:57:34;18.80;;;16.35;;
52574;SDS011;38468;48.114;-1.684;2023-05-15T02:59:35;19.92;;;17.80;;
52574;SDS011;38468;48.114;-1.684;2023-05-15T03:01:36;16.63;;;14.93;;
52574;SDS011;38468;48.114;-1.684;2023-05-15T03:03:37;18.20;;;15.57;;
52574;SDS011;38468;48.114;-1.684;2023-05-15T03:05:38;16.48;;;14.68;;
52574;SDS011;38468;48.114;-1.684;2023-05-15T03:07:39;20.00;;;16.40;;
52574;SDS011;38468;48.114;-1.684;2023-05-15T03:09:41;16.08;;;14.13;;
52574;SDS011;38468;48.114;-1.684;2023-05-15T03:11:41;20.60;;;16.73;;
52574;SDS011;38468;48.114;-1.684;2023-05-15T03:13:42;18.63;;;16.63;;
52574;SDS011;38468;48.114;-1.684;2023-05-15T03:15:43;19.45;;;16.58;;
52574;SDS011;38468;48.114;-1.684;2023-05-15T03:17:46;22.95;;;16.17;;
52574;SDS011;38468;48.114;-1.684;2023-05-15T03:19:47;18.17;;;16.27;;
52574;SDS011;38468;48.114;-1.684;2023-05-15T03:21:47;16.42;;;14.70;;
52574;SDS011;38468;48.114;-1.684;2023-05-15T03:23:48;17.38;;;15.15;;
52574;SDS011;38468;48.114;-1.684;2023-05-15T03:25:48;18.23;;;15.70;;
52574;SDS011;38468;48.114;-1.684;2023-05-15T03:27:49;20.05;;;17.33;;
52574;SDS011;38468;48.114;-1.684;2023-05-15T03:29:50;18.40;;;16.35;;
52574;SDS011;38468;48.114;-1.684;2023-05-15T03:31:50;20.15;;;16.20;;
52574;SDS011;38468;48.114;-1.684;2023-05-15T03:33:51;17.92;;;16.15;;
52574;SDS011;38468;48.114;-1.684;2023-05-15T03:35:51;16.63;;;14.93;;
52574;SDS011;38468;48.114;-1.684;2023-05-15T03:37:52;19.67;;;17.15;;
52574;SDS011;38468;48.114;-1.684;2023-05-15T03:39:53;20.38;;;16.70;;
52574;SDS011;38468;48.114;-1.684;2023-05-15T03:41:54;17.90;;;16.02;;
52574;SDS011;38468;48.114;-1.684;2023-05-15T03:43:54;24.33;;;18.20;;
52574;SDS011;38468;48.114;-1.684;2023-05-15T03:45:55;18.88;;;16.30;;
52574;SDS011;38468;48.114;-1.684;2023-05-15T03:47:55;16.92;;;15.10;;
52574;SDS011;38468;48.114;-1.684;2023-05-15T03:49:56;22.13;;;19.35;;
52574;SDS011;38468;48.114;-1.684;2023-05-15T03:51:57;17.08;;;15.25;;
52574;SDS011;38468;48.114;-1.684;2023-05-15T03:53:57;23.90;;;18.33;;
52574;SDS011;38468;48.114;-1.684;2023-05-15T03:55:58;22.00;;;18.15;;
52574;SDS011;38468;48.114;-1.684;2023-05-15T03:57:59;18.85;;;16.10;;
52574;SDS011;38468;48.114;-1.684;2023-05-15T03:59:59;24.75;;;20.17;;
52574;SDS011;38468;48.114;-1.684;2023-05-15T04:02:03;17.85;;;15.80;;
52574;SDS011;38468;48.114;-1.684;2023-05-15T04:04:03;23.80;;;18.73;;
52574;SDS011;38468;48.114;-1.684;2023-05-15T04:06:04;18.48;;;16.38;;
52574;SDS011;38468;48.114;-1.684;2023-05-15T04:08:05;21.85;;;18.25;;
52574;SDS011;38468;48.114;-1.684;2023-05-15T04:10:06;28.43;;;19.90;;
52574;SDS011;38468;48.114;-1.684;2023-05-15T04:12:08;22.98;;;19.70;;
52574;SDS011;38468;48.114;-1.684;2023-05-15T04:14:08;19.65;;;17.65;;
52574;SDS011;38468;48.114;-1.684;2023-05-15T04:16:09;23.80;;;19.63;;
52574;SDS011;38468;48.114;-1.684;2023-05-15T04:18:09;19.38;;;16.88;;
52574;SDS011;38468;48.114;-1.684;2023-05-15T04:20:11;23.35;;;17.45;;
52574;SDS011;38468;48.114;-1.684;2023-05-15T04:22:14;24.63;;;18.13;;
52574;SDS011;38468;48.114;-1.684;2023-05-15T04:24:14;24.00;;;19.45;;
52574;SDS011;38468;48.114;-1.684;2023-05-15T04:26:15;20.08;;;16.27;;
52574;SDS011;38468;48.114;-1.684;2023-05-15T04:28:16;21.95;;;17.55;;
52574;SDS011;38468;48.114;-1.684;2023-05-15T04:30:16;22.50;;;17.95;;
52574;SDS011;38468;48.114;-1.684;2023-05-15T04:32:17;20.35;;;18.15;;
52574;SDS011;38468;48.114;-1.684;2023-05-15T04:34:18;21.88;;;17.92;;
52574;SDS011;38468;48.114;-1.684;2023-05-15T04:36:19;19.85;;;15.55;;
52574;SDS011;38468;48.114;-1.684;2023-05-15T04:38:20;23.38;;;17.40;;
52574;SDS011;38468;48.114;-1.684;2023-05-15T04:40:20;22.25;;;18.17;;
52574;SDS011;38468;48.114;-1.684;2023-05-15T04:42:21;20.70;;;16.85;;
52574;SDS011;38468;48.114;-1.684;2023-05-15T04:44:21;21.38;;;18.23;;
52574;SDS011;38468;48.114;-1.684;2023-05-15T04:46:22;25.58;;;19.48;;
52574;SDS011;38468;48.114;-1.684;2023-05-15T04:48:23;17.90;;;15.90;;
52574;SDS011;38468;48.114;-1.684;2023-05-15T04:50:24;18.83;;;16.38;;
52574;SDS011;38468;48.114;-1.684;2023-05-15T04:52:24;22.83;;;17.15;;
52574;SDS011;38468;48.114;-1.684;2023-05-15T04:54:25;22.50;;;17.52;;
52574;SDS011;38468;48.114;-1.684;2023-05-15T04:56:25;22.48;;;19.08;;
52574;SDS011;38468;48.114;-1.684;2023-05-15T04:58:26;23.90;;;16.60;;
52574;SDS011;38468;48.114;-1.684;2023-05-15T05:00:27;23.30;;;18.20;;
52574;SDS011;38468;48.114;-1.684;2023-05-15T05:02:28;19.38;;;17.35;;
52574;SDS011;38468;48.114;-1.684;2023-05-15T05:04:29;20.88;;;17.13;;
52574;SDS011;38468;48.114;-1.684;2023-05-15T05:06:30;19.67;;;16.02;;
52574;SDS011;38468;48.114;-1.684;2023-05-15T05:08:30;20.15;;;17.10;;
52574;SDS011;38468;48.114;-1.684;2023-05-15T05:10:31;18.50;;;16.60;;
52574;SDS011;38468;48.114;-1.684;2023-05-15T05:12:32;18.55;;;16.42;;
52574;SDS011;38468;48.114;-1.684;2023-05-15T05:14:32;17.88;;;16.08;;
52574;SDS011;38468;48.114;-1.684;2023-05-15T05:16:33;18.52;;;16.52;;
52574;SDS011;38468;48.114;-1.684;2023-05-15T05:18:34;17.92;;;16.15;;
52574;SDS011;38468;48.114;-1.684;2023-05-15T05:20:35;20.17;;;15.25;;
52574;SDS011;38468;48.114;-1.684;2023-05-15T05:22:36;17.10;;;14.90;;
52574;SDS011;38468;48.114;-1.684;2023-05-15T05:24:37;19.08;;;16.60;;
52574;SDS011;38468;48.114;-1.684;2023-05-15T05:26:37;15.55;;;13.73;;
52574;SDS011;38468;48.114;-1.684;2023-05-15T05:28:38;18.27;;;15.43;;
52574;SDS011;38468;48.114;-1.684;2023-05-15T05:30:39;16.95;;;14.88;;
52574;SDS011;38468;48.114;-1.684;2023-05-15T05:32:46;16.42;;;14.15;;
52574;SDS011;38468;48.114;-1.684;2023-05-15T05:34:47;18.25;;;15.63;;
52574;SDS011;38468;48.114;-1.684;2023-05-15T05:36:48;19.92;;;16.95;;
52574;SDS011;38468;48.114;-1.684;2023-05-15T05:38:49;16.80;;;13.40;;
52574;SDS011;38468;48.114;-1.684;2023-05-15T05:40:50;15.18;;;13.57;;
52574;SDS011;38468;48.114;-1.684;2023-05-15T05:42:50;17.77;;;14.65;;
52574;SDS011;38468;48.114;-1.684;2023-05-15T05:44:51;18.05;;;14.60;;
52574;SDS011;38468;48.114;-1.684;2023-05-15T05:46:52;16.73;;;14.15;;
52574;SDS011;38468;48.114;-1.684;2023-05-15T05:48:52;18.23;;;14.43;;
52574;SDS011;38468;48.114;-1.684;2023-05-15T05:50:53;15.75;;;13.00;;
52574;SDS011;38468;48.114;-1.684;2023-05-15T05:52:54;17.08;;;13.48;;
52574;SDS011;38468;48.114;-1.684;2023-05-15T05:54:54;15.00;;;13.45;;
52574;SDS011;38468;48.114;-1.684;2023-05-15T05:56:55;15.18;;;13.68;;
52574;SDS011;38468;48.114;-1.684;2023-05-15T05:58:56;16.77;;;13.20;;
52574;SDS011;38468;48.114;-1.684;2023-05-15T06:03:00;16.50;;;13.02;;
52574;SDS011;38468;48.114;-1.684;2023-05-15T06:05:01;15.82;;;14.23;;
52574;SDS011;38468;48.114;-1.684;2023-05-15T06:07:02;16.55;;;12.85;;
52574;SDS011;38468;48.114;-1.684;2023-05-15T06:09:03;16.38;;;11.80;;
52574;SDS011;38468;48.114;-1.684;2023-05-15T06:11:04;15.25;;;13.75;;
52574;SDS011;38468;48.114;-1.684;2023-05-15T06:13:05;14.90;;;13.50;;
52574;SDS011;38468;48.114;-1.684;2023-05-15T06:15:06;13.30;;;11.40;;
52574;SDS011;38468;48.114;-1.684;2023-05-15T06:17:07;15.95;;;12.88;;
52574;SDS011;38468;48.114;-1.684;2023-05-15T06:19:07;15.25;;;12.48;;
52574;SDS011;38468;48.114;-1.684;2023-05-15T06:21:08;17.63;;;14.70;;
52574;SDS011;38468;48.114;-1.684;2023-05-15T06:23:08;16.33;;;12.90;;
52574;SDS011;38468;48.114;-1.684;2023-05-15T06:25:09;15.18;;;13.63;;
52574;SDS011;38468;48.114;-1.684;2023-05-15T06:27:13;14.18;;;12.23;;
52574;SDS011;38468;48.114;-1.684;2023-05-15T06:29:13;13.07;;;11.85;;
52574;SDS011;38468;48.114;-1.684;2023-05-15T06:31:14;16.20;;;12.38;;
52574;SDS011;38468;48.114;-1.684;2023-05-15T06:33:16;17.55;;;13.93;;
52574;SDS011;38468;48.114;-1.684;2023-05-15T06:35:16;14.20;;;11.98;;
52574;SDS011;38468;48.114;-1.684;2023-05-15T06:37:17;16.42;;;13.15;;
52574;SDS011;38468;48.114;-1.684;2023-05-15T06:39:18;15.32;;;12.55;;
52574;SDS011;38468;48.114;-1.684;2023-05-15T06:41:19;13.60;;;12.10;;
52574;SDS011;38468;48.114;-1.684;2023-05-15T06:43:20;12.00;;;10.75;;
52574;SDS011;38468;48.114;-1.684;2023-05-15T06:45:21;13.70;;;12.23;;
52574;SDS011;38468;48.114;-1.684;2023-05-15T06:47:21;13.93;;;12.52;;
52574;SDS011;38468;48.114;-1.684;2023-05-15T06:49:23;12.93;;;11.43;;
52574;SDS011;38468;48.114;-1.684;2023-05-15T06:51:24;14.73;;;10.63;;
52574;SDS011;38468;48.114;-1.684;2023-05-15T06:53:25;13.80;;;11.55;;
52574;SDS011;38468;48.114;-1.684;2023-05-15T06:55:25;14.02;;;12.05;;
52574;SDS011;38468;48.114;-1.684;2023-05-15T06:57:26;15.60;;;11.18;;
52574;SDS011;38468;48.114;-1.684;2023-05-15T06:59:26;12.02;;;10.55;;
52574;SDS011;38468;48.114;-1.684;2023-05-15T07:01:28;11.73;;;10.63;;
52574;SDS011;38468;48.114;-1.684;2023-05-15T07:03:30;12.30;;;10.20;;
52574;SDS011;38468;48.114;-1.684;2023-05-15T07:05:31;15.20;;;12.32;;
52574;SDS011;38468;48.114;-1.684;2023-05-15T07:07:31;14.32;;;11.60;;
52574;SDS011;38468;48.114;-1.684;2023-05-15T07:09:32;14.98;;;10.60;;
52574;SDS011;38468;48.114;-1.684;2023-05-15T07:11:34;9.80;;;8.63;;
52574;SDS011;38468;48.114;-1.684;2023-05-15T07:13:37;10.15;;;9.15;;
52574;SDS011;38468;48.114;-1.684;2023-05-15T07:15:38;10.10;;;9.20;;
52574;SDS011;38468;48.114;-1.684;2023-05-15T07:17:38;12.68;;;11.43;;
52574;SDS011;38468;48.114;-1.684;2023-05-15T07:19:39;11.57;;;9.05;;
52574;SDS011;38468;48.114;-1.684;2023-05-15T07:21:40;12.23;;;11.02;;
52574;SDS011;38468;48.114;-1.684;2023-05-15T07:23:40;15.15;;;10.88;;
52574;SDS011;38468;48.114;-1.684;2023-05-15T07:25:41;13.07;;;11.65;;
52574;SDS011;38468;48.114;-1.684;2023-05-15T07:27:42;11.40;;;10.20;;
52574;SDS011;38468;48.114;-1.684;2023-05-15T07:29:42;12.57;;;10.70;;
52574;SDS011;38468;48.114;-1.684;2023-05-15T07:31:43;14.25;;;11.88;;
52574;SDS011;38468;48.114;-1.684;2023-05-15T07:33:43;13.88;;;12.48;;
52574;SDS011;38468;48.114;-1.684;2023-05-15T07:35:44;14.70;;;12.80;;
52574;SDS011;38468;48.114;-1.684;2023-05-15T07:37:45;15.32;;;12.68;;
52574;SDS011;38468;48.114;-1.684;2023-05-15T07:39:45;13.00;;;11.80;;
52574;SDS011;38468;48.114;-1.684;2023-05-15T07:41:46;12.75;;;11.43;;
52574;SDS011;38468;48.114;-1.684;2023-05-15T07:43:47;12.65;;;11.32;;
52574;SDS011;38468;48.114;-1.684;2023-05-15T07:45:47;12.23;;;10.77;;
52574;SDS011;38468;48.114;-1.684;2023-05-15T07:47:48;12.55;;;9.80;;
52574;SDS011;38468;48.114;-1.684;2023-05-15T07:49:49;14.07;;;12.40;;
52574;SDS011;38468;48.114;-1.684;2023-05-15T07:51:50;13.73;;;12.27;;
52574;SDS011;38468;48.114;-1.684;2023-05-15T07:53:50;14.07;;;11.48;;
52574;SDS011;38468;48.114;-1.684;2023-05-15T07:55:51;12.45;;;11.15;;
52574;SDS011;38468;48.114;-1.684;2023-05-15T07:57:52;12.52;;;10.45;;
52574;SDS011;38468;48.114;-1.684;2023-05-15T07:59:53;12.82;;;10.70;;
52574;SDS011;38468;48.114;-1.684;2023-05-15T08:01:53;13.95;;;11.05;;
52574;SDS011;38468;48.114;-1.684;2023-05-15T08:03:54;12.73;;;10.80;;
52574;SDS011;38468;48.114;-1.684;2023-05-15T08:05:55;10.23;;;9.32;;
52574;SDS011;38468;48.114;-1.684;2023-05-15T08:07:56;12.02;;;10.63;;
52574;SDS011;38468;48.114;-1.684;2023-05-15T08:09:56;11.90;;;9.95;;
52574;SDS011;38468;48.114;-1.684;2023-05-15T08:12:13;11.68;;;10.23;;
52574;SDS011;38468;48.114;-1.684;2023-05-15T08:14:16;12.27;;;11.02;;
52574;SDS011;38468;48.114;-1.684;2023-05-15T08:16:17;10.60;;;9.35;;
52574;SDS011;38468;48.114;-1.684;2023-05-15T08:18:17;11.30;;;10.20;;
52574;SDS011;38468;48.114;-1.684;2023-05-15T08:20:18;11.75;;;9.00;;
52574;SDS011;38468;48.114;-1.684;2023-05-15T08:22:19;11.20;;;10.18;;
52574;SDS011;38468;48.114;-1.684;2023-05-15T08:24:19;8.40;;;7.57;;
52574;SDS011;38468;48.114;-1.684;2023-05-15T08:26:20;8.77;;;7.97;;
52574;SDS011;38468;48.114;-1.684;2023-05-15T08:28:21;8.88;;;8.10;;
52574;SDS011;38468;48.114;-1.684;2023-05-15T08:30:21;9.40;;;7.95;;
52574;SDS011;38468;48.114;-1.684;2023-05-15T08:32:22;8.90;;;8.00;;
52574;SDS011;38468;48.114;-1.684;2023-05-15T08:34:23;9.65;;;8.73;;
52574;SDS011;38468;48.114;-1.684;2023-05-15T08:36:24;12.13;;;9.20;;
52574;SDS011;38468;48.114;-1.684;2023-05-15T08:38:25;11.13;;;10.05;;
52574;SDS011;38468;48.114;-1.684;2023-05-15T08:40:26;10.05;;;9.02;;
52574;SDS011;38468;48.114;-1.684;2023-05-15T08:42:31;10.13;;;8.57;;
52574;SDS011;38468;48.114;-1.684;2023-05-15T08:44:34;9.32;;;8.43;;
52574;SDS011;38468;48.114;-1.684;2023-05-15T08:46:35;8.53;;;7.70;;
52574;SDS011;38468;48.114;-1.684;2023-05-15T08:48:37;10.95;;;9.82;;
52574;SDS011;38468;48.114;-1.684;2023-05-15T08:50:41;8.10;;;7.20;;
52574;SDS011;38468;48.114;-1.684;2023-05-15T08:52:43;9.65;;;8.02;;
52574;SDS011;38468;48.114;-1.684;2023-05-15T08:54:45;8.77;;;7.95;;
52574;SDS011;38468;48.114;-1.684;2023-05-15T08:56:47;9.13;;;8.23;;
52574;SDS011;38468;48.114;-1.684;2023-05-15T08:58:48;8.60;;;7.70;;
52574;SDS011;38468;48.114;-1.684;2023-05-15T09:00:50;9.27;;;8.20;;
52574;SDS011;38468;48.114;-1.684;2023-05-15T09:02:52;10.13;;;8.73;;
52574;SDS011;38468;48.114;-1.684;2023-05-15T09:04:53;9.57;;;8.73;;
52574;SDS011;38468;48.114;-1.684;2023-05-15T09:06:53;9.25;;;8.35;;
52574;SDS011;38468;48.114;-1.684;2023-05-15T09:08:55;11.00;;;8.15;;
52574;SDS011;38468;48.114;-1.684;2023-05-15T09:10:57;8.80;;;7.93;;
52574;SDS011;38468;48.114;-1.684;2023-05-15T09:15:08;8.20;;;7.40;;
52574;SDS011;38468;48.114;-1.684;2023-05-15T09:17:13;8.33;;;7.53;;
52574;SDS011;38468;48.114;-1.684;2023-05-15T09:19:13;9.57;;;6.72;;
52574;SDS011;38468;48.114;-1.684;2023-05-15T09:21:30;8.95;;;8.05;;
52574;SDS011;38468;48.114;-1.684;2023-05-15T09:23:30;9.55;;;7.63;;
52574;SDS011;38468;48.114;-1.684;2023-05-15T09:27:39;7.63;;;6.93;;
52574;SDS011;38468;48.114;-1.684;2023-05-15T09:29:42;7.28;;;6.65;;
52574;SDS011;38468;48.114;-1.684;2023-05-15T09:31:44;7.10;;;6.40;;
52574;SDS011;38468;48.114;-1.684;2023-05-15T09:33:46;6.88;;;6.18;;
52574;SDS011;38468;48.114;-1.684;2023-05-15T09:35:48;6.85;;;6.25;;
52574;SDS011;38468;48.114;-1.684;2023-05-15T09:37:51;7.85;;;6.80;;
52574;SDS011;38468;48.114;-1.684;2023-05-15T09:40:08;7.30;;;6.70;;
52574;SDS011;38468;48.114;-1.684;2023-05-15T09:42:10;6.97;;;6.28;;
52574;SDS011;38468;48.114;-1.684;2023-05-15T09:44:19;7.72;;;6.85;;
52574;SDS011;38468;48.114;-1.684;2023-05-15T09:46:26;6.78;;;5.53;;
52574;SDS011;38468;48.114;-1.684;2023-05-15T09:48:27;9.02;;;6.65;;
52574;SDS011;38468;48.114;-1.684;2023-05-15T09:50:32;6.57;;;5.97;;
52574;SDS011;38468;48.114;-1.684;2023-05-15T09:52:34;6.72;;;6.13;;
52574;SDS011;38468;48.114;-1.684;2023-05-15T09:54:36;6.72;;;6.03;;
52574;SDS011;38468;48.114;-1.684;2023-05-15T09:56:36;7.45;;;6.75;;
52574;SDS011;38468;48.114;-1.684;2023-05-15T09:58:37;6.78;;;6.10;;
52574;SDS011;38468;48.114;-1.684;2023-05-15T10:00:50;8.25;;;6.10;;
52574;SDS011;38468;48.114;-1.684;2023-05-15T10:02:51;7.57;;;5.97;;
52574;SDS011;38468;48.114;-1.684;2023-05-15T10:04:55;7.05;;;6.43;;
52574;SDS011;38468;48.114;-1.684;2023-05-15T10:06:56;6.45;;;5.85;;
52574;SDS011;38468;48.114;-1.684;2023-05-15T10:08:57;7.72;;;6.82;;
52574;SDS011;38468;48.114;-1.684;2023-05-15T10:10:58;6.03;;;5.53;;
52574;SDS011;38468;48.114;-1.684;2023-05-15T10:13:00;6.95;;;6.32;;
52574;SDS011;38468;48.114;-1.684;2023-05-15T10:15:04;7.90;;;7.10;;
52574;SDS011;38468;48.114;-1.684;2023-05-15T10:17:05;7.88;;;7.13;;
52574;SDS011;38468;48.114;-1.684;2023-05-15T10:19:11;7.13;;;6.43;;
52574;SDS011;38468;48.114;-1.684;2023-05-15T10:21:12;7.72;;;6.28;;
52574;SDS011;38468;48.114;-1.684;2023-05-15T10:23:15;8.43;;;7.50;;
52574;SDS011;38468;48.114;-1.684;2023-05-15T10:25:40;7.85;;;5.85;;
52574;SDS011;38468;48.114;-1.684;2023-05-15T10:27:45;4.90;;;4.38;;
52574;SDS011;38468;48.114;-1.684;2023-05-15T10:31:48;1.27;;;1.27;;
52574;SDS011;38468;48.114;-1.684;2023-05-15T10:35:51;1.88;;;0.98;;
52574;SDS011;38468;48.114;-1.684;2023-05-15T10:37:53;0.50;;;0.50;;
52574;SDS011;38468;48.114;-1.684;2023-05-15T10:39:53;1.88;;;0.43;;
52574;SDS011;38468;48.114;-1.684;2023-05-15T10:41:56;0.88;;;0.75;;
52574;SDS011;38468;48.114;-1.684;2023-05-15T10:45:59;0.30;;;0.30;;
52574;SDS011;38468;48.114;-1.684;2023-05-15T10:48:01;0.70;;;0.70;;
52574;SDS011;38468;48.114;-1.684;2023-05-15T10:50:03;0.45;;;0.40;;
52574;SDS011;38468;48.114;-1.684;2023-05-15T10:52:05;0.50;;;0.40;;
52574;SDS011;38468;48.114;-1.684;2023-05-15T10:54:06;0.45;;;0.45;;
52574;SDS011;38468;48.114;-1.684;2023-05-15T10:56:12;0.60;;;0.60;;
52574;SDS011;38468;48.114;-1.684;2023-05-15T10:58:15;0.68;;;0.68;;
52574;SDS011;38468;48.114;-1.684;2023-05-15T11:00:23;0.65;;;0.65;;
52574;SDS011;38468;48.114;-1.684;2023-05-15T11:02:26;1.55;;;0.98;;
52574;SDS011;38468;48.114;-1.684;2023-05-15T11:04:30;1.60;;;1.10;;
52574;SDS011;38468;48.114;-1.684;2023-05-15T11:08:34;1.85;;;1.63;;
52574;SDS011;38468;48.114;-1.684;2023-05-15T11:10:36;2.38;;;2.17;;
52574;SDS011;38468;48.114;-1.684;2023-05-15T11:12:56;3.20;;;1.60;;
52574;SDS011;38468;48.114;-1.684;2023-05-15T11:16:59;2.72;;;2.15;;
52574;SDS011;38468;48.114;-1.684;2023-05-15T11:19:03;3.75;;;2.63;;
52574;SDS011;38468;48.114;-1.684;2023-05-15T11:21:30;3.42;;;2.70;;
52574;SDS011;38468;48.114;-1.684;2023-05-15T11:23:37;5.90;;;2.65;;
52574;SDS011;38468;48.114;-1.684;2023-05-15T11:25:39;3.40;;;2.60;;
52574;SDS011;38468;48.114;-1.684;2023-05-15T11:27:41;3.58;;;2.08;;
52574;SDS011;38468;48.114;-1.684;2023-05-15T11:34:45;5.80;;;2.40;;
52574;SDS011;38468;48.114;-1.684;2023-05-15T11:36:49;4.32;;;3.42;;
52574;SDS011;38468;48.114;-1.684;2023-05-15T11:38:50;5.82;;;2.67;;
52574;SDS011;38468;48.114;-1.684;2023-05-15T11:40:53;2.90;;;2.10;;
52574;SDS011;38468;48.114;-1.684;2023-05-15T11:43:07;2.15;;;1.63;;
52574;SDS011;38468;48.114;-1.684;2023-05-15T11:45:19;3.85;;;2.15;;
52574;SDS011;38468;48.114;-1.684;2023-05-15T11:47:22;2.13;;;1.80;;
52574;SDS011;38468;48.114;-1.684;2023-05-15T11:49:24;4.47;;;2.15;;
52574;SDS011;38468;48.114;-1.684;2023-05-15T11:51:26;2.50;;;2.30;;
52574;SDS011;38468;48.114;-1.684;2023-05-15T11:53:29;5.68;;;2.40;;
52574;SDS011;38468;48.114;-1.684;2023-05-15T11:55:34;4.22;;;3.40;;
52574;SDS011;38468;48.114;-1.684;2023-05-15T11:57:36;4.82;;;3.92;;
52574;SDS011;38468;48.114;-1.684;2023-05-15T11:59:37;5.47;;;3.83;;
52574;SDS011;38468;48.114;-1.684;2023-05-15T12:01:38;8.57;;;5.82;;
52574;SDS011;38468;48.114;-1.684;2023-05-15T12:03:45;6.40;;;5.10;;
52574;SDS011;38468;48.114;-1.684;2023-05-15T12:05:47;4.72;;;4.20;;
52574;SDS011;38468;48.114;-1.684;2023-05-15T12:07:48;5.07;;;4.68;;
52574;SDS011;38468;48.114;-1.684;2023-05-15T12:09:50;10.35;;;5.43;;
52574;SDS011;38468;48.114;-1.684;2023-05-15T12:11:54;8.50;;;5.68;;
52574;SDS011;38468;48.114;-1.684;2023-05-15T12:13:55;10.40;;;5.50;;
52574;SDS011;38468;48.114;-1.684;2023-05-15T12:15:55;9.52;;;5.30;;
52574;SDS011;38468;48.114;-1.684;2023-05-15T12:17:57;6.80;;;5.20;;
52574;SDS011;38468;48.114;-1.684;2023-05-15T12:20:02;8.45;;;4.50;;
52574;SDS011;38468;48.114;-1.684;2023-05-15T12:22:04;7.93;;;5.40;;
52574;SDS011;38468;48.114;-1.684;2023-05-15T12:24:05;7.05;;;5.10;;
52574;SDS011;38468;48.114;-1.684;2023-05-15T12:26:06;8.52;;;4.70;;
52574;SDS011;38468;48.114;-1.684;2023-05-15T12:28:07;11.30;;;5.10;;